createdAt,value
2018-02-17T00:00:29.624Z,97.37
2018-02-17T00:02:57.358Z,97.46
2018-02-17T00:05:25.045Z,97.26
2018-02-17T00:07:52.632Z,97.22
2018-02-17T00:10:20.266Z,97.00
2018-02-17T00:12:47.859Z,96.90
2018-02-17T00:15:15.681Z,97.01
2018-02-17T00:17:43.274Z,97.16
2018-02-17T00:20:10.854Z,97.26
2018-02-17T00:22:38.427Z,97.38
2018-02-17T00:25:06.033Z,97.39
2018-02-17T00:27:33.808Z,97.41
2018-02-17T00:30:01.372Z,97.28
2018-02-17T00:32:28.991Z,97.38
2018-02-17T00:34:56.562Z,97.25
2018-02-17T00:37:24.156Z,97.19
2018-02-17T00:39:51.760Z,97.43
2018-02-17T00:42:19.378Z,97.71
2018-02-17T00:44:46.947Z,97.63
2018-02-17T00:47:14.556Z,97.77
2018-02-17T00:49:42.375Z,97.82
2018-02-17T00:52:10.006Z,97.95
2018-02-17T00:54:37.624Z,97.91
2018-02-17T00:57:05.341Z,97.75
2018-02-17T00:59:32.908Z,98.00
2018-02-17T01:02:00.513Z,98.41
2018-02-17T01:04:28.131Z,98.60
2018-02-17T01:06:55.688Z,98.50
2018-02-17T01:09:23.268Z,98.11
2018-02-17T01:11:50.912Z,98.12
2018-02-17T01:14:18.470Z,98.12
2018-02-17T01:16:46.080Z,98.16
2018-02-17T01:19:13.689Z,98.25
2018-02-17T01:21:41.481Z,98.34
2018-02-17T01:24:09.253Z,98.22
2018-02-17T01:26:36.824Z,98.21
2018-02-17T01:29:04.404Z,98.07
2018-02-17T01:31:32.024Z,97.87
2018-02-17T01:33:59.588Z,97.97
2018-02-17T01:36:27.165Z,97.82
2018-02-17T01:38:54.778Z,97.65
2018-02-17T01:41:22.484Z,97.50
2018-02-17T01:43:50.072Z,97.54
2018-02-17T01:46:17.796Z,97.70
2018-02-17T01:48:45.480Z,97.87
2018-02-17T01:51:13.043Z,97.85
2018-02-17T01:53:40.682Z,98.02
2018-02-17T01:56:08.253Z,98.37
2018-02-17T01:58:35.871Z,98.46
2018-02-17T02:01:03.478Z,98.82
2018-02-17T02:03:31.050Z,98.80
2018-02-17T02:05:58.677Z,98.67
2018-02-17T02:08:26.361Z,98.75
2018-02-17T02:10:53.926Z,98.57
2018-02-17T02:13:21.509Z,98.60
2018-02-17T02:15:49.124Z,98.45
2018-02-17T02:18:16.797Z,98.49
2018-02-17T02:20:44.368Z,98.52
2018-02-17T02:23:11.980Z,98.37
2018-02-17T02:25:39.545Z,98.38
2018-02-17T02:28:07.115Z,98.29
2018-02-17T02:30:34.731Z,98.19
2018-02-17T02:33:02.324Z,98.17
2018-02-17T02:35:29.915Z,98.23
2018-02-17T02:37:57.520Z,98.04
2018-02-17T02:40:25.158Z,98.04
2018-02-17T02:42:53.008Z,97.95
2018-02-17T02:45:20.636Z,98.01
2018-02-17T02:47:48.215Z,98.03
2018-02-17T02:50:16.087Z,98.19
2018-02-17T02:52:43.690Z,98.27
2018-02-17T02:55:11.248Z,98.24
2018-02-17T02:57:38.830Z,98.30
2018-02-17T03:00:06.423Z,98.26
2018-02-17T03:02:33.974Z,98.29
2018-02-17T03:05:01.552Z,98.24
2018-02-17T03:07:29.164Z,98.64
2018-02-17T03:09:56.733Z,98.55
2018-02-17T03:12:24.306Z,98.88
2018-02-17T03:14:51.933Z,98.72
2018-02-17T03:17:19.502Z,98.80
2018-02-17T03:19:47.322Z,98.79
2018-02-17T03:22:14.939Z,98.77
2018-02-17T03:24:42.642Z,98.67
2018-02-17T03:27:10.217Z,98.68
2018-02-17T03:29:37.837Z,98.77
2018-02-17T03:32:05.648Z,98.90
2018-02-17T03:34:33.220Z,98.68
2018-02-17T03:37:00.820Z,98.54
2018-02-17T03:39:28.366Z,98.54
2018-02-17T03:41:55.934Z,98.48
2018-02-17T03:44:23.535Z,98.75
2018-02-17T03:46:51.097Z,98.92
2018-02-17T03:49:18.667Z,99.18
2018-02-17T03:51:46.271Z,99.06
2018-02-17T03:54:13.850Z,98.97
2018-02-17T03:56:41.457Z,98.93
2018-02-17T03:59:09.060Z,98.77
2018-02-17T04:01:36.637Z,98.68
2018-02-17T04:04:04.212Z,98.73
2018-02-17T04:06:31.820Z,98.90
2018-02-17T04:08:59.541Z,98.97
2018-02-17T04:11:27.115Z,98.77
2018-02-17T04:13:54.746Z,98.53
2018-02-17T04:16:22.533Z,98.61
2018-02-17T04:18:50.103Z,98.49
2018-02-17T04:21:17.714Z,98.43
2018-02-17T04:23:45.303Z,98.61
2018-02-17T04:26:12.890Z,98.89
2018-02-17T04:28:40.475Z,98.90
2018-02-17T04:31:08.310Z,98.97
2018-02-17T04:33:35.892Z,98.71
2018-02-17T04:36:03.612Z,98.54
2018-02-17T04:38:31.238Z,98.67
2018-02-17T04:44:10.232Z,98.49
2018-02-17T04:46:43.644Z,98.54
2018-02-17T04:49:17.860Z,98.61
2018-02-17T04:51:50.868Z,98.39
2018-02-17T04:54:20.900Z,98.48
2018-02-17T04:56:48.517Z,98.96
2018-02-17T05:02:26.364Z,99.41
2018-02-17T05:04:54.614Z,99.45
2018-02-17T05:07:32.634Z,99.18
2018-02-17T05:10:00.276Z,98.99
2018-02-17T05:12:28.050Z,98.88
2018-02-17T05:14:58.231Z,98.56
2018-02-17T05:17:31.519Z,98.36
2018-02-17T05:20:02.986Z,98.03
2018-02-17T05:25:46.206Z,97.79
2018-02-17T05:28:13.922Z,97.32
2018-02-17T05:30:42.805Z,97.54
2018-02-17T05:33:20.352Z,97.88
2018-02-17T05:38:50.699Z,97.72
2018-02-17T05:44:36.976Z,97.13
2018-02-17T05:47:06.365Z,97.10
2018-02-17T05:49:33.975Z,96.42
2018-02-17T05:52:01.629Z,95.98
2018-02-17T05:54:29.348Z,96.09
2018-02-17T05:56:57.000Z,96.06
2018-02-17T05:59:24.599Z,95.92
2018-02-17T06:01:52.181Z,95.61
2018-02-17T06:04:19.839Z,94.39
2018-02-17T06:06:47.461Z,93.78
2018-02-17T06:09:15.038Z,92.60
2018-02-17T06:11:42.780Z,92.30
2018-02-17T06:14:10.424Z,92.62
2018-02-17T06:16:38.041Z,93.03
2018-02-17T06:19:05.754Z,92.14
2018-02-17T06:21:33.348Z,92.58
2018-02-17T06:24:01.098Z,92.42
2018-02-17T06:26:28.953Z,92.76
2018-02-17T06:28:56.549Z,91.51
2018-02-17T06:31:24.268Z,90.15
2018-02-17T06:33:51.852Z,90.13
2018-02-17T06:36:19.456Z,89.43
2018-02-17T06:38:47.036Z,90.61
2018-02-17T06:41:14.707Z,90.29
2018-02-17T06:43:42.378Z,90.12
2018-02-17T06:46:09.958Z,88.46
2018-02-17T06:48:37.711Z,88.65
2018-02-17T06:51:05.580Z,87.33
2018-02-17T06:53:33.154Z,87.25
2018-02-17T06:56:00.746Z,86.03
2018-02-17T06:58:28.361Z,85.41
2018-02-17T07:00:56.022Z,84.35
2018-02-17T07:03:23.680Z,83.36
2018-02-17T07:05:51.295Z,83.03
2018-02-17T07:08:18.872Z,82.79
2018-02-17T07:10:46.662Z,83.04
2018-02-17T07:13:14.316Z,81.30
2018-02-17T07:15:41.970Z,79.64
2018-02-17T07:18:09.555Z,79.87
2018-02-17T07:20:37.156Z,79.79
2018-02-17T07:23:04.726Z,77.13
2018-02-17T07:25:32.424Z,76.33
2018-02-17T07:28:00.103Z,74.25
2018-02-17T07:30:27.675Z,71.72
2018-02-17T07:32:55.426Z,70.39
2018-02-17T07:35:23.050Z,68.17
2018-02-17T07:37:50.739Z,66.89
2018-02-17T07:40:18.342Z,66.57
2018-02-17T07:42:45.972Z,67.02
2018-02-17T07:45:13.718Z,64.47
2018-02-17T07:47:41.399Z,64.09
2018-02-17T07:50:09.014Z,63.95
2018-02-17T07:52:36.721Z,63.61
2018-02-17T07:55:04.282Z,63.67
2018-02-17T07:57:32.057Z,63.08
2018-02-17T07:59:59.665Z,62.83
2018-02-17T08:02:27.222Z,61.49
2018-02-17T08:04:55.164Z,60.46
2018-02-17T08:07:22.766Z,60.46
2018-02-17T08:09:50.338Z,61.45
2018-02-17T08:12:17.955Z,62.48
2018-02-17T08:14:45.539Z,61.93
2018-02-17T08:17:13.108Z,61.43
2018-02-17T08:19:40.716Z,59.45
2018-02-17T08:22:08.670Z,57.55
2018-02-17T08:24:36.338Z,55.54
2018-02-17T08:27:03.960Z,54.00
2018-02-17T08:29:31.536Z,49.12
2018-02-17T08:31:59.306Z,49.26
2018-02-17T08:34:26.982Z,47.65
2018-02-17T08:36:54.645Z,48.49
2018-02-17T08:39:22.236Z,48.95
2018-02-17T08:41:49.848Z,49.48
2018-02-17T08:44:17.763Z,48.72
2018-02-17T08:46:45.493Z,46.63
2018-02-17T08:49:13.107Z,46.27
2018-02-17T08:51:40.698Z,47.67
2018-02-17T08:54:08.478Z,47.10
2018-02-17T08:56:36.348Z,45.01
2018-02-17T08:59:03.930Z,43.36
2018-02-17T09:01:31.528Z,42.82
2018-02-17T09:03:59.129Z,43.52
2018-02-17T09:06:26.699Z,42.45
2018-02-17T09:08:54.303Z,41.61
2018-02-17T09:11:21.955Z,39.44
2018-02-17T09:13:49.532Z,38.29
2018-02-17T09:16:17.112Z,38.49
2018-02-17T09:18:44.826Z,36.94
2018-02-17T09:21:12.569Z,39.70
2018-02-17T09:23:40.207Z,38.63
2018-02-17T09:26:07.807Z,38.42
2018-02-17T09:28:35.578Z,37.92
2018-02-17T09:31:03.192Z,37.15
2018-02-17T09:33:31.052Z,34.62
2018-02-17T09:35:58.627Z,35.85
2018-02-17T09:38:26.202Z,35.46
2018-02-17T09:40:53.834Z,36.69
2018-02-17T09:43:21.413Z,36.30
2018-02-17T09:45:49.188Z,35.32
2018-02-17T09:48:16.847Z,35.81
2018-02-17T09:50:44.440Z,34.93
2018-02-17T09:53:12.195Z,35.25
2018-02-17T09:55:39.824Z,32.98
2018-02-17T09:58:07.414Z,32.85
2018-02-17T10:00:35.152Z,33.79
2018-02-17T10:03:02.766Z,33.82
2018-02-17T10:05:30.470Z,33.46
2018-02-17T10:07:58.142Z,33.73
2018-02-17T10:10:25.766Z,32.91
2018-02-17T10:12:53.470Z,31.18
2018-02-17T10:15:21.034Z,32.34
2018-02-17T10:17:49.207Z,32.87
2018-02-17T10:20:18.211Z,32.78
2018-02-17T10:22:47.520Z,31.96
2018-02-17T10:25:16.452Z,32.18
2018-02-17T10:27:45.695Z,30.56
2018-02-17T10:30:13.359Z,30.13
2018-02-17T10:32:42.457Z,29.80
2018-02-17T10:35:10.104Z,27.99
2018-02-17T10:37:37.708Z,28.47
2018-02-17T10:40:05.340Z,29.01
2018-02-17T10:42:32.924Z,29.79
2018-02-17T10:45:00.507Z,32.52
2018-02-17T10:47:28.141Z,34.14
2018-02-17T10:49:55.710Z,33.25
2018-02-17T10:52:23.295Z,36.85
2018-02-17T10:54:50.904Z,39.70
2018-02-17T10:57:18.566Z,42.52
2018-02-17T10:59:46.212Z,44.70
2018-02-17T11:02:13.839Z,45.09
2018-02-17T11:04:41.550Z,44.27
2018-02-17T11:07:09.271Z,45.18
2018-02-17T11:09:37.063Z,44.78
2018-02-17T11:12:04.638Z,44.86
2018-02-17T11:17:16.609Z,44.30
2018-02-17T11:19:44.175Z,42.75
2018-02-17T11:22:11.774Z,39.96
2018-02-17T11:24:39.421Z,36.45
2018-02-17T11:27:07.022Z,35.97
2018-02-17T11:29:34.600Z,34.43
2018-02-17T11:32:02.172Z,34.40
2018-02-17T11:34:29.778Z,33.80
2018-02-17T11:36:57.354Z,34.48
2018-02-17T11:39:24.968Z,33.80
2018-02-17T11:44:44.610Z,33.45
2018-02-17T11:47:12.209Z,32.63
2018-02-17T11:49:57.139Z,32.50
2018-02-17T11:52:24.783Z,31.01
2018-02-17T11:54:52.370Z,31.28
2018-02-17T11:57:19.975Z,30.37
2018-02-17T11:59:47.623Z,28.30
2018-02-17T12:02:15.218Z,29.76
2018-02-17T12:04:42.817Z,29.09
2018-02-17T12:07:10.444Z,29.78
2018-02-17T12:09:38.029Z,29.35
2018-02-17T12:12:05.613Z,30.15
2018-02-17T12:14:33.284Z,32.21
2018-02-17T12:17:00.887Z,32.20
2018-02-17T12:19:28.560Z,32.13
2018-02-17T12:21:56.200Z,30.88
2018-02-17T12:24:23.787Z,31.19
2018-02-17T12:26:51.536Z,32.19
2018-02-17T12:29:19.248Z,32.21
2018-02-17T12:31:46.866Z,31.03
2018-02-17T12:34:14.456Z,30.38
2018-02-17T12:36:42.127Z,30.62
2018-02-17T12:39:09.699Z,29.64
2018-02-17T12:41:37.308Z,31.70
2018-02-17T12:44:04.945Z,30.77
2018-02-17T12:46:32.530Z,30.62
2018-02-17T12:49:00.114Z,29.81
2018-02-17T12:51:27.716Z,29.18
2018-02-17T12:53:55.389Z,27.54
2018-02-17T12:56:22.987Z,28.05
2018-02-17T12:58:50.580Z,28.40
2018-02-17T13:01:18.144Z,28.72
2018-02-17T13:03:45.736Z,31.36
2018-02-17T13:06:13.323Z,32.24
2018-02-17T13:08:41.044Z,31.74
2018-02-17T13:11:08.594Z,31.54
2018-02-17T13:13:36.199Z,31.52
2018-02-17T13:16:03.778Z,31.10
2018-02-17T13:18:31.333Z,32.25
2018-02-17T13:20:58.940Z,32.92
2018-02-17T13:23:26.505Z,32.87
2018-02-17T13:25:54.088Z,33.40
2018-02-17T13:28:25.715Z,33.60
2018-02-17T13:30:53.310Z,33.45
2018-02-17T13:33:20.986Z,34.78
2018-02-17T13:35:48.591Z,35.23
2018-02-17T13:38:16.151Z,35.80
2018-02-17T13:40:43.715Z,34.90
2018-02-17T13:43:11.442Z,35.45
2018-02-17T13:45:39.106Z,36.16
2018-02-17T13:48:06.754Z,35.48
2018-02-17T13:50:34.342Z,33.81
2018-02-17T13:53:01.923Z,34.32
2018-02-17T13:55:29.510Z,33.77
2018-02-17T13:57:57.110Z,34.45
2018-02-17T14:00:24.684Z,35.07
2018-02-17T14:02:52.251Z,34.88
2018-02-17T14:05:19.847Z,36.94
2018-02-17T14:07:47.405Z,39.29
2018-02-17T14:10:15.098Z,40.73
2018-02-17T14:12:42.732Z,41.23
2018-02-17T14:15:10.309Z,43.20
2018-02-17T14:17:38.017Z,43.83
2018-02-17T14:20:05.660Z,44.39
2018-02-17T14:22:33.230Z,44.95
2018-02-17T14:25:00.794Z,44.50
2018-02-17T14:27:28.444Z,45.00
2018-02-17T14:29:56.012Z,44.91
2018-02-17T14:32:23.641Z,45.55
2018-02-17T14:34:51.248Z,46.03
2018-02-17T14:37:18.818Z,45.14
2018-02-17T14:39:46.402Z,45.22
2018-02-17T14:42:14.010Z,45.33
2018-02-17T14:44:41.753Z,44.29
2018-02-17T14:47:09.317Z,44.92
2018-02-17T14:49:36.936Z,44.54
2018-02-17T14:52:04.740Z,45.35
2018-02-17T14:54:32.311Z,45.16
2018-02-17T14:56:59.923Z,45.01
2018-02-17T14:59:27.488Z,46.40
2018-02-17T15:01:55.185Z,45.42
2018-02-17T15:04:22.792Z,45.94
2018-02-17T15:06:50.400Z,46.24
2018-02-17T15:09:17.962Z,46.64
2018-02-17T15:11:45.632Z,47.52
2018-02-17T15:14:14.386Z,47.64
2018-02-17T15:16:41.944Z,48.05
2018-02-17T15:19:09.546Z,48.73
2018-02-17T15:21:37.116Z,50.08
2018-02-17T15:24:04.758Z,48.93
2018-02-17T15:26:32.444Z,48.89
2018-02-17T15:29:00.023Z,49.40
2018-02-17T15:31:27.599Z,49.46
2018-02-17T15:33:55.406Z,50.75
2018-02-17T15:36:23.089Z,50.97
2018-02-17T15:38:50.704Z,51.35
2018-02-17T15:41:18.511Z,51.76
2018-02-17T15:43:46.100Z,51.84
2018-02-17T15:46:13.655Z,52.32
2018-02-17T15:48:41.245Z,54.73
2018-02-17T15:51:08.830Z,58.42
2018-02-17T15:53:36.390Z,55.63
2018-02-17T15:56:04.326Z,55.60
2018-02-17T15:58:31.881Z,58.64
2018-02-17T16:00:59.448Z,59.46
2018-02-17T16:03:27.048Z,57.86
2018-02-17T16:05:54.645Z,57.93
2018-02-17T16:08:22.227Z,57.86
2018-02-17T16:10:49.893Z,59.96
2018-02-17T16:13:17.448Z,61.13
2018-02-17T16:15:45.015Z,61.85
2018-02-17T16:18:14.503Z,63.45
2018-02-17T16:20:44.226Z,61.61
2018-02-17T16:23:17.692Z,64.42
2018-02-17T16:25:45.345Z,63.00
2018-02-17T16:28:12.908Z,63.53
2018-02-17T16:30:40.500Z,66.11
2018-02-17T16:33:08.313Z,64.77
2018-02-17T16:35:35.887Z,66.95
2018-02-17T16:38:03.479Z,66.40
2018-02-17T16:40:31.109Z,67.52
2018-02-17T16:42:58.753Z,67.82
2018-02-17T16:45:26.347Z,68.47
2018-02-17T16:47:53.949Z,66.77
2018-02-17T16:50:21.605Z,68.45
2018-02-17T16:52:49.188Z,68.97
2018-02-17T16:55:16.817Z,68.48
2018-02-17T16:57:44.547Z,68.48
2018-02-17T17:00:12.098Z,66.99
2018-02-17T17:02:39.846Z,67.81
2018-02-17T17:05:07.430Z,68.39
2018-02-17T17:07:35.023Z,69.08
2018-02-17T17:10:02.844Z,67.96
2018-02-17T17:12:30.496Z,67.98
2018-02-17T17:14:58.188Z,70.59
2018-02-17T17:17:25.845Z,69.11
2018-02-17T17:19:53.407Z,70.55
2018-02-17T17:22:20.978Z,71.19
2018-02-17T17:24:48.625Z,72.60
2018-02-17T17:27:16.289Z,73.65
2018-02-17T17:29:43.844Z,75.75
2018-02-17T17:32:11.513Z,75.82
2018-02-17T17:34:39.272Z,75.21
2018-02-17T17:37:07.347Z,74.48
2018-02-17T17:39:35.202Z,74.64
2018-02-17T17:42:03.040Z,75.82
2018-02-17T17:44:30.988Z,75.48
2018-02-17T17:46:58.632Z,76.00
2018-02-17T17:49:26.274Z,76.33
2018-02-17T17:51:53.868Z,75.91
2018-02-17T17:54:21.592Z,75.43
2018-02-17T17:56:49.247Z,76.99
2018-02-17T17:59:16.919Z,77.95
2018-02-17T18:01:44.522Z,78.60
2018-02-17T18:04:12.183Z,79.38
2018-02-17T18:06:39.778Z,80.77
2018-02-17T18:09:07.474Z,79.23
2018-02-17T18:11:35.561Z,80.10
2018-02-17T18:14:03.158Z,80.34
2018-02-17T18:16:30.967Z,82.33
2018-02-17T18:18:58.539Z,80.45
2018-02-17T18:21:26.094Z,79.46
2018-02-17T18:23:53.688Z,80.08
2018-02-17T18:26:21.414Z,81.02
2018-02-17T18:28:49.045Z,82.17
2018-02-17T18:31:16.683Z,80.75
2018-02-17T18:33:44.383Z,81.30
2018-02-17T18:36:12.216Z,82.58
2018-02-17T18:38:39.831Z,82.89
2018-02-17T18:41:07.544Z,82.22
2018-02-17T18:43:35.103Z,82.76
2018-02-17T18:46:02.770Z,81.99
2018-02-17T18:48:30.349Z,82.96
2018-02-17T18:50:57.907Z,84.28
2018-02-17T18:53:25.509Z,84.23
2018-02-17T18:55:53.080Z,85.30
2018-02-17T18:58:20.681Z,85.66
2018-02-17T19:00:48.267Z,86.32
2018-02-17T19:03:15.839Z,86.56
2018-02-17T19:05:43.384Z,86.45
2018-02-17T19:08:11.056Z,86.78
2018-02-17T19:10:38.720Z,87.51
2018-02-17T19:13:06.381Z,87.35
2018-02-17T19:15:34.043Z,85.89
2018-02-17T19:18:01.603Z,86.84
2018-02-17T19:20:29.165Z,85.39
2018-02-17T19:22:56.784Z,85.54
2018-02-17T19:25:24.356Z,86.16
2018-02-17T19:27:51.948Z,85.91
2018-02-17T19:30:19.587Z,85.70
2018-02-17T19:32:47.457Z,86.70
2018-02-17T19:35:15.032Z,86.31
2018-02-17T19:37:42.643Z,85.75
2018-02-17T19:40:10.215Z,85.84
2018-02-17T19:42:37.763Z,87.01
2018-02-17T19:45:05.345Z,86.41
2018-02-17T19:47:32.903Z,87.02
2018-02-17T19:50:00.454Z,86.97
2018-02-17T19:52:28.054Z,86.52
2018-02-17T19:54:55.800Z,87.62
2018-02-17T19:57:23.347Z,86.00
2018-02-17T19:59:50.949Z,87.15
2018-02-17T20:02:18.511Z,87.07
2018-02-17T20:04:46.083Z,87.28
2018-02-17T20:07:13.678Z,87.68
2018-02-17T20:09:41.270Z,88.34
2018-02-17T20:12:08.834Z,87.34
2018-02-17T20:14:36.456Z,88.06
2018-02-17T20:17:04.036Z,88.21
2018-02-17T20:19:31.618Z,88.58
2018-02-17T20:21:59.232Z,89.29
2018-02-17T20:24:26.934Z,88.62
2018-02-17T20:26:54.510Z,89.47
2018-02-17T20:29:22.110Z,88.95
2018-02-17T20:31:49.687Z,89.17
2018-02-17T20:34:17.379Z,89.34
2018-02-17T20:36:45.062Z,88.88
2018-02-17T20:39:12.632Z,89.19
2018-02-17T20:41:40.199Z,88.75
2018-02-17T20:44:07.942Z,88.76
2018-02-17T20:46:35.710Z,89.49
2018-02-17T20:49:04.222Z,89.84
2018-02-17T20:51:31.819Z,90.16
2018-02-17T20:53:59.396Z,90.56
2018-02-17T20:56:26.968Z,90.82
2018-02-17T20:58:54.632Z,90.21
2018-02-17T21:01:22.211Z,89.83
2018-02-17T21:03:49.779Z,90.37
2018-02-17T21:06:17.392Z,89.65
2018-02-17T21:08:45.003Z,89.52
2018-02-17T21:11:12.591Z,89.53
2018-02-17T21:13:40.198Z,89.55
2018-02-17T21:16:07.870Z,90.42
2018-02-17T21:18:35.454Z,89.58
2018-02-17T21:21:03.065Z,90.10
2018-02-17T21:23:30.689Z,90.63
2018-02-17T21:25:58.273Z,90.79
2018-02-17T21:28:25.920Z,91.42
2018-02-17T21:30:53.541Z,90.99
2018-02-17T21:33:21.102Z,91.06
2018-02-17T21:35:50.173Z,90.52
2018-02-17T21:38:17.739Z,90.62
2018-02-17T21:40:45.365Z,90.35
2018-02-17T21:43:13.034Z,90.52
2018-02-17T21:45:40.593Z,91.64
2018-02-17T21:48:08.161Z,92.05
2018-02-17T21:50:35.788Z,93.04
2018-02-17T21:53:03.417Z,92.55
2018-02-17T21:55:30.996Z,92.74
2018-02-17T21:57:59.169Z,93.38
2018-02-17T22:00:26.850Z,93.29
2018-02-17T22:02:54.435Z,93.39
2018-02-17T22:05:22.042Z,93.74
2018-02-17T22:07:49.606Z,94.07
2018-02-17T22:10:17.154Z,93.97
2018-02-17T22:12:44.753Z,93.34
2018-02-17T22:15:12.320Z,93.22
2018-02-17T22:17:39.902Z,93.43
2018-02-17T22:20:07.514Z,93.45
2018-02-17T22:22:35.069Z,93.35
2018-02-17T22:25:02.631Z,93.68
2018-02-17T22:27:30.257Z,93.76
2018-02-17T22:29:57.812Z,93.97
2018-02-17T22:32:25.375Z,93.98
2018-02-17T22:34:52.994Z,94.13
2018-02-17T22:37:20.563Z,94.22
2018-02-17T22:39:48.150Z,94.47
2018-02-17T22:42:15.764Z,94.82
2018-02-17T22:44:43.354Z,94.96
2018-02-17T22:47:10.953Z,95.30
2018-02-17T22:49:38.593Z,95.37
2018-02-17T22:52:06.173Z,95.49
2018-02-17T22:54:33.760Z,95.41
2018-02-17T22:57:01.347Z,95.53
2018-02-17T22:59:28.913Z,96.39
2018-02-17T23:01:56.506Z,96.52
2018-02-17T23:04:24.125Z,96.33
2018-02-17T23:06:51.702Z,96.30
2018-02-17T23:09:19.284Z,96.37
2018-02-17T23:11:46.891Z,96.10
2018-02-17T23:14:14.478Z,95.83
2018-02-17T23:16:42.051Z,95.83
2018-02-17T23:19:09.653Z,95.87
2018-02-17T23:21:37.223Z,95.77
2018-02-17T23:24:04.780Z,96.37
2018-02-17T23:26:32.401Z,96.06
2018-02-17T23:28:59.980Z,96.14
2018-02-17T23:31:27.553Z,96.21
2018-02-17T23:33:55.138Z,95.99
2018-02-17T23:36:22.700Z,95.61
2018-02-17T23:38:50.265Z,95.59
2018-02-17T23:41:17.882Z,95.87
2018-02-17T23:43:45.464Z,96.13
2018-02-17T23:46:13.035Z,96.01
2018-02-17T23:48:40.647Z,95.91
2018-02-17T23:51:08.839Z,95.57
2018-02-17T23:53:36.421Z,95.21
2018-02-17T23:56:04.053Z,94.39
2018-02-17T23:58:31.608Z,93.21
